Terminal Aerodrome Forecast
Issued by NWS Cleveland, OH

Home | Current Version | Previous Version | Graphics & Text | Print | Product List | Glossary Off
Versions: 1 2 3 4 5 6 7 8 9 10 11 12 13 14

000
FTUS41 KCLE 251905 AAA
TAFYNG
TAF AMD
KYNG 251905Z 2519/2618 04008KT 6SM HZ SCT030 BKN060
     FM260300 07006KT 4SM BR SCT010 BKN035
     FM261600 14010KT 6SM HZ VCSH SCT020 BKN045=

USA.gov is the U.S. government's official web portal to all federal, state and local government web resources and services.